Time;durP1;ratioP1;P1;durP2;ratioP2;P2;SDS_P1;SDS_P2;PMS_P1;PMS_P2;Temp;Humidity;BMP_temperature;BMP_pressure;BME280_temperature;BME280_humidity;BME280_pressure;Samples;Min_cycle;Max_cycle;Signal;HPM_P1;HPM_P2
2024/03/22 00:02:27;;;;;;;;;;;;;;;7.32;57.54;94819.53;10310128;28;19914;-80
2024/03/22 00:07:27;;;;;;;;;;;;;;;7.16;51.56;94823.13;10308653;28;20388;-82
2024/03/22 00:12:29;;;;;;;;;;;;;;;7.06;53.00;94822.97;10310867;28;19971;-81
2024/03/22 00:17:30;;;;;;;;;;;;;;;6.90;55.54;94811.31;10327797;28;19913;-80
2024/03/22 00:22:30;;;;;;;;;;;;;;;6.80;57.31;94815.44;10328351;28;19917;-82
2024/03/22 00:27:31;;;;;;;;;;;;;;;6.50;60.91;94830.00;10309787;28;19914;-81
2024/03/22 00:32:31;;;;;;;;;;;;;;;6.49;58.79;94825.72;10307190;28;19910;-81
2024/03/22 00:37:31;;;;;;;;;;;;;;;6.37;58.31;94834.88;10308953;28;20004;-81
2024/03/22 00:42:31;;;;;;;;;;;;;;;6.23;59.89;94834.41;10309785;28;20306;-82
2024/03/22 00:47:32;;;;;;;;;;;;;;;6.05;60.77;94827.44;10308545;28;19918;-80
2024/03/22 00:52:37;;;;;;;;;;;;;;;5.94;63.10;94823.75;10291359;28;20004;-82
2024/03/22 00:57:37;;;;;;;;;;;;;;;5.58;65.34;94826.63;10310055;28;19921;-81
2024/03/22 01:02:37;;;;;;;;;;;;;;;5.43;68.22;94829.81;10335227;28;19913;-81
2024/03/22 01:07:38;;;;;;;;;;;;;;;5.42;67.42;94819.41;10313689;28;19913;-81
2024/03/22 01:12:39;;;;;;;;;;;;;;;5.42;69.27;94824.72;10309122;28;20690;-78
2024/03/22 01:17:40;;;;;;;;;;;;;;;5.50;72.21;94829.69;10309397;28;20337;-80
2024/03/22 01:22:40;;;;;;;;;;;;;;;5.51;72.51;94828.59;10305481;28;19916;-79
2024/03/22 01:27:40;;;;;;;;;;;;;;;5.71;74.18;94825.50;10307072;28;19913;-81
2024/03/22 01:32:40;;;;;;;;;;;;;;;5.58;74.05;94821.31;10306161;28;19910;-81
2024/03/22 01:37:41;;;;;;;;;;;;;;;5.65;72.61;94824.63;10308060;28;19980;-81
2024/03/22 01:42:41;;;;;;;;;;;;;;;5.75;73.58;94823.16;10313752;28;20373;-81
2024/03/22 01:47:41;;;;;;;;;;;;;;;5.93;72.20;94820.28;10318878;28;19917;-81
2024/03/22 01:52:41;;;;;;;;;;;;;;;6.03;71.85;94821.53;10325073;28;19932;-81
2024/03/22 01:57:42;;;;;;;;;;;;;;;6.13;70.83;94822.50;10323365;28;19920;-80
2024/03/22 02:02:42;;;;;;;;;;;;;;;6.05;74.88;94817.56;10327628;28;20385;-80
2024/03/22 02:07:42;;;;;;;;;;;;;;;6.09;75.76;94824.03;10297887;28;20070;-80
2024/03/22 02:12:43;;;;;;;;;;;;;;;5.87;75.96;94820.44;10298268;28;20000;-80
2024/03/22 02:17:43;;;;;;;;;;;;;;;5.82;76.99;94821.19;10296325;28;19914;-82
2024/03/22 02:22:43;;;;;;;;;;;;;;;5.90;78.96;94823.44;10297217;28;20308;-81
2024/03/22 02:27:43;;;;;;;;;;;;;;;5.74;81.46;94827.69;10306409;28;19922;-80
2024/03/22 02:32:44;;;;;;;;;;;;;;;5.70;82.75;94831.88;10313128;28;20042;-81
2024/03/22 02:37:44;;;;;;;;;;;;;;;5.63;77.29;94841.91;10315101;28;20424;-80
2024/03/22 02:42:44;;;;;;;;;;;;;;;5.57;78.32;94835.66;10311508;28;20627;-81
2024/03/22 02:47:44;;;;;;;;;;;;;;;5.46;80.04;94839.19;10313177;28;19935;-80
2024/03/22 02:52:45;;;;;;;;;;;;;;;5.38;80.26;94852.91;10312183;28;19975;-81
2024/03/22 02:57:45;;;;;;;;;;;;;;;5.19;83.32;94855.75;10315397;28;19914;-80
2024/03/22 03:02:45;;;;;;;;;;;;;;;5.14;84.70;94866.28;10353773;28;19913;-81
2024/03/22 03:07:47;;;;;;;;;;;;;;;4.94;90.60;94864.03;10311025;28;19920;-82
2024/03/22 03:12:47;;;;;;;;;;;;;;;4.89;89.77;94866.56;10313428;28;19918;-82
2024/03/22 03:17:47;;;;;;;;;;;;;;;4.89;88.07;94878.03;10282512;28;20300;-81
2024/03/22 03:22:47;;;;;;;;;;;;;;;4.67;89.91;94880.47;10293603;28;19917;-81
2024/03/22 03:27:48;;;;;;;;;;;;;;;4.67;86.25;94880.47;10312879;28;19913;-81
2024/03/22 03:32:48;;;;;;;;;;;;;;;4.41;87.30;94889.72;10332272;28;19920;-84
2024/03/22 03:37:49;;;;;;;;;;;;;;;4.15;91.20;94891.78;10292526;28;19977;-86
2024/03/22 03:42:49;;;;;;;;;;;;;;;3.82;96.24;94905.56;10285313;28;19910;-82
2024/03/22 03:47:49;;;;;;;;;;;;;;;3.38;100.00;94911.06;10289861;28;20357;-80
2024/03/22 03:52:50;;;;;;;;;;;;;;;3.38;100.00;94911.88;10311359;28;20358;-81
2024/03/22 03:57:50;;;;;;;;;;;;;;;3.31;100.00;94918.28;10336635;28;19917;-80
2024/03/22 04:02:50;;;;;;;;;;;;;;;3.27;100.00;94917.94;10316599;28;20032;-81
2024/03/22 04:07:51;;;;;;;;;;;;;;;3.31;100.00;94918.28;10293192;28;19918;-79
2024/03/22 04:12:51;;;;;;;;;;;;;;;3.43;100.00;94921.81;10311414;28;19913;-82
2024/03/22 04:17:51;;;;;;;;;;;;;;;3.47;100.00;94912.38;10310977;28;20317;-81
2024/03/22 04:22:52;;;;;;;;;;;;;;;3.52;100.00;94925.00;10310271;28;19914;-81
2024/03/22 04:27:52;;;;;;;;;;;;;;;3.70;100.00;94926.81;10310966;28;19917;-81
2024/03/22 04:32:52;;;;;;;;;;;;;;;3.63;100.00;94934.88;10334990;28;19917;-80
2024/03/22 04:37:52;;;;;;;;;;;;;;;3.69;99.93;94936.63;10309925;28;20432;-81
2024/03/22 04:42:53;;;;;;;;;;;;;;;3.79;99.12;94938.72;10308653;28;19913;-81
2024/03/22 04:47:53;;;;;;;;;;;;;;;3.86;99.65;94936.78;10316413;28;20641;-81
2024/03/22 04:52:53;;;;;;;;;;;;;;;3.83;100.00;94939.91;10308078;28;20024;-80
2024/03/22 04:57:53;;;;;;;;;;;;;;;4.04;100.00;94943.09;10308707;28;19921;-80
2024/03/22 05:02:53;;;;;;;;;;;;;;;4.41;98.52;94935.78;10311478;28;19917;-78
2024/03/22 05:07:54;;;;;;;;;;;;;;;4.55;97.63;94946.19;10308132;28;19924;-78
2024/03/22 05:12:54;;;;;;;;;;;;;;;4.64;96.82;94954.69;10311634;28;19983;-78
2024/03/22 05:17:55;;;;;;;;;;;;;;;4.70;97.21;94951.91;10314954;28;19913;-82
2024/03/22 05:22:56;;;;;;;;;;;;;;;4.80;90.79;94964.66;10291769;28;20005;-81
2024/03/22 05:27:56;;;;;;;;;;;;;;;4.59;91.71;94966.00;10309817;28;19917;-82
2024/03/22 05:32:57;;;;;;;;;;;;;;;4.82;91.27;94959.88;10298283;28;19932;-81
2024/03/22 05:37:57;;;;;;;;;;;;;;;5.48;85.81;94960.53;10312805;28;19918;-81
2024/03/22 05:42:57;;;;;;;;;;;;;;;6.08;78.94;94971.03;10314395;28;20328;-81
2024/03/22 05:47:58;;;;;;;;;;;;;;;6.82;74.22;94960.28;10315571;28;19928;-81
2024/03/22 05:52:58;;;;;;;;;;;;;;;7.85;66.88;94958.16;10308546;28;19921;-82
2024/03/22 05:57:58;;;;;;;;;;;;;;;9.06;62.50;94961.44;10297127;28;20393;-78
2024/03/22 06:02:58;;;;;;;;;;;;;;;10.11;54.28;94964.34;10308016;28;19952;-77
2024/03/22 06:07:59;;;;;;;;;;;;;;;10.66;52.27;94956.69;10300915;28;20379;-77
2024/03/22 06:12:59;;;;;;;;;;;;;;;11.20;50.97;94966.06;10300001;28;19910;-78
2024/03/22 06:17:59;;;;;;;;;;;;;;;11.72;48.79;94965.97;10307160;28;19916;-77
2024/03/22 06:22:59;;;;;;;;;;;;;;;12.69;45.17;94948.50;10300254;28;19909;-79
2024/03/22 06:28:00;;;;;;;;;;;;;;;13.23;41.83;94954.00;10304169;28;19976;-79
2024/03/22 06:33:00;;;;;;;;;;;;;;;13.92;41.27;94949.25;10284581;28;19920;-80
2024/03/22 06:38:02;;;;;;;;;;;;;;;13.80;42.57;94955.06;10305587;28;19976;-77
2024/03/22 06:43:02;;;;;;;;;;;;;;;13.08;41.84;94961.16;10310628;28;19920;-78
2024/03/22 06:48:03;;;;;;;;;;;;;;;13.89;40.39;94965.25;10286145;28;19925;-78
2024/03/22 06:53:04;;;;;;;;;;;;;;;14.59;39.84;94958.38;10292497;28;19909;-79
2024/03/22 06:58:04;;;;;;;;;;;;;;;15.30;37.79;94961.09;10293573;28;20416;-78
2024/03/22 07:03:05;;;;;;;;;;;;;;;16.61;36.53;94964.50;10304440;28;19929;-77
2024/03/22 07:08:05;;;;;;;;;;;;;;;17.58;33.03;94964.91;10302587;28;20402;-78
2024/03/22 07:13:06;;;;;;;;;;;;;;;18.30;32.87;94962.16;10306395;28;19925;-78
2024/03/22 07:18:06;;;;;;;;;;;;;;;18.59;32.75;94961.56;10302457;28;19985;-77
2024/03/22 07:23:06;;;;;;;;;;;;;;;19.62;31.41;94962.97;10303872;28;19920;-80
2024/03/22 07:28:06;;;;;;;;;;;;;;;20.23;30.27;94968.19;10306252;28;19975;-79
2024/03/22 07:33:07;;;;;;;;;;;;;;;21.43;28.66;94963.28;10304465;28;20300;-79
2024/03/22 07:38:07;;;;;;;;;;;;;;;21.83;27.79;94956.47;10308417;28;20008;-79
2024/03/22 07:43:07;;;;;;;;;;;;;;;20.87;28.46;94966.38;10307488;28;20384;-79
2024/03/22 07:48:07;;;;;;;;;;;;;;;21.66;28.53;94957.47;10308677;28;19914;-80
2024/03/22 07:53:08;;;;;;;;;;;;;;;21.42;28.35;94964.44;10309289;28;19941;-81
2024/03/22 07:58:08;;;;;;;;;;;;;;;21.26;27.75;94969.72;10309200;28;20076;-82
2024/03/22 08:03:13;;;;;;;;;;;;;;;20.74;28.10;94972.91;10326986;28;19996;-81
2024/03/22 08:08:14;;;;;;;;;;;;;;;21.42;29.09;94963.63;10321712;28;20256;-80
2024/03/22 08:13:14;;;;;;;;;;;;;;;20.52;28.61;94963.06;10309109;28;19916;-81
2024/03/22 08:18:14;;;;;;;;;;;;;;;21.62;27.11;94960.09;10309444;28;20317;-79
2024/03/22 08:23:15;;;;;;;;;;;;;;;21.38;27.28;94954.50;10314571;28;19992;-81
2024/03/22 08:28:15;;;;;;;;;;;;;;;20.90;27.87;94957.50;10340571;28;19913;-79
2024/03/22 08:33:16;;;;;;;;;;;;;;;18.21;31.15;94962.13;10305269;28;19968;-80
2024/03/22 08:38:16;;;;;;;;;;;;;;;17.22;32.84;94971.25;10308495;28;19922;-80
2024/03/22 08:43:17;;;;;;;;;;;;;;;16.73;34.67;94967.47;10309177;28;20004;-79
2024/03/22 08:48:17;;;;;;;;;;;;;;;17.18;33.69;94964.81;10307575;28;20285;-80
2024/03/22 08:53:17;;;;;;;;;;;;;;;17.24;34.38;94965.50;10306148;28;19969;-80
2024/03/22 08:58:18;;;;;;;;;;;;;;;17.36;34.66;94956.78;10306092;28;20005;-79
2024/03/22 09:03:18;;;;;;;;;;;;;;;16.95;35.93;94963.22;10303763;28;19921;-80
2024/03/22 09:08:21;;;;;;;;;;;;;;;16.77;33.63;94967.66;10310152;28;20366;-80
2024/03/22 09:13:21;;;;;;;;;;;;;;;16.62;34.96;94960.66;10305408;28;20353;-79
2024/03/22 09:18:27;;;;;;;;;;;;;;;16.15;34.64;94960.88;10307566;28;19979;-81
2024/03/22 09:23:28;;;;;;;;;;;;;;;16.12;37.21;94959.56;10307112;28;20008;-80
2024/03/22 09:28:28;;;;;;;;;;;;;;;16.35;36.59;94946.06;10305945;28;19913;-79
2024/03/22 09:33:29;;;;;;;;;;;;;;;16.80;33.40;94945.34;10306210;28;19914;-80
2024/03/22 09:38:29;;;;;;;;;;;;;;;17.15;33.99;94940.19;10286850;28;20337;-81
2024/03/22 09:43:30;;;;;;;;;;;;;;;18.51;31.48;94939.78;10305554;28;19909;-80
2024/03/22 09:48:32;;;;;;;;;;;;;;;20.04;30.03;94937.78;10302408;28;19918;-78
2024/03/22 09:53:32;;;;;;;;;;;;;;;23.23;26.60;94913.41;10300763;28;19921;-79
2024/03/22 09:58:32;;;;;;;;;;;;;;;26.18;23.25;94907.25;10303189;28;19944;-80
2024/03/22 10:03:34;;;;;;;;;;;;;;;27.60;23.03;94900.44;10309938;28;20445;-80
2024/03/22 10:08:34;;;;;;;;;;;;;;;27.97;21.99;94891.31;10304563;28;19918;-79
2024/03/22 10:13:34;;;;;;;;;;;;;;;28.66;20.34;94898.19;10307153;28;20341;-78
2024/03/22 10:18:35;;;;;;;;;;;;;;;29.20;21.22;94892.91;10305886;28;19909;-79
2024/03/22 10:23:35;;;;;;;;;;;;;;;30.39;19.52;94870.13;10304496;28;19914;-79
2024/03/22 10:28:35;;;;;;;;;;;;;;;30.56;19.02;94874.91;10305283;28;20567;-79
2024/03/22 10:33:36;;;;;;;;;;;;;;;31.55;18.03;94865.00;10302909;28;19909;-78
2024/03/22 10:38:38;;;;;;;;;;;;;;;30.82;18.89;94864.50;10303913;28;19918;-80
2024/03/22 10:43:38;;;;;;;;;;;;;;;30.29;19.20;94855.88;10309460;28;19914;-79
2024/03/22 10:48:39;;;;;;;;;;;;;;;30.05;18.80;94856.72;10308267;28;20345;-79
2024/03/22 10:53:40;;;;;;;;;;;;;;;25.67;22.01;94856.84;10301550;28;19920;-80
2024/03/22 10:58:42;;;;;;;;;;;;;;;23.06;23.12;94858.88;10327201;28;19909;-79
2024/03/22 11:03:42;;;;;;;;;;;;;;;23.76;23.59;94843.81;10309043;28;19932;-79
2024/03/22 11:08:43;;;;;;;;;;;;;;;25.37;22.75;94835.50;10307658;28;19918;-79
2024/03/22 11:13:43;;;;;;;;;;;;;;;26.79;23.59;94825.44;10300863;28;20000;-78
2024/03/22 11:18:43;;;;;;;;;;;;;;;26.44;20.58;94832.03;10302452;28;19913;-78
2024/03/22 11:23:46;;;;;;;;;;;;;;;26.76;21.48;94818.72;10304409;28;19917;-79
2024/03/22 11:28:47;;;;;;;;;;;;;;;23.82;23.08;94823.19;10308154;28;19920;-80
2024/03/22 11:33:47;;;;;;;;;;;;;;;21.11;25.60;94833.72;10308703;28;19909;-80
2024/03/22 11:38:53;;;;;;;;;;;;;;;18.81;27.84;94831.84;10290169;28;19917;-79
2024/03/22 11:43:53;;;;;;;;;;;;;;;17.14;30.55;94836.19;10288873;28;19965;-79
2024/03/22 11:48:54;;;;;;;;;;;;;;;16.05;32.09;94829.84;10305699;28;20568;-80
2024/03/22 11:53:56;;;;;;;;;;;;;;;15.16;34.24;94823.78;10291221;28;19918;-80
2024/03/22 11:59:00;;;;;;;;;;;;;;;15.49;34.05;94818.25;10308190;28;20004;-79
2024/03/22 12:04:01;;;;;;;;;;;;;;;15.98;33.38;94820.53;10307571;28;19929;-78
2024/03/22 12:09:01;;;;;;;;;;;;;;;15.84;31.96;94810.50;10306263;28;19925;-78
2024/03/22 12:14:01;;;;;;;;;;;;;;;16.04;31.78;94803.81;10305555;28;20472;-79
2024/03/22 12:19:02;;;;;;;;;;;;;;;16.17;31.96;94788.66;10304925;28;19913;-79
2024/03/22 12:24:03;;;;;;;;;;;;;;;15.85;31.81;94798.56;10303333;28;20320;-79
2024/03/22 12:29:04;;;;;;;;;;;;;;;15.32;32.58;94794.50;10302257;28;19918;-79
2024/03/22 12:34:04;;;;;;;;;;;;;;;14.46;33.00;94784.16;10302092;28;19910;-80
2024/03/22 12:39:04;;;;;;;;;;;;;;;13.70;34.84;94786.91;10306150;28;20328;-80
2024/03/22 12:44:05;;;;;;;;;;;;;;;13.55;36.82;94786.03;10305014;28;19909;-80
2024/03/22 12:49:05;;;;;;;;;;;;;;;13.81;35.39;94780.28;10308593;28;20395;-81
2024/03/22 12:54:05;;;;;;;;;;;;;;;13.25;36.57;94779.91;10308336;28;19909;-79
2024/03/22 12:59:05;;;;;;;;;;;;;;;13.62;35.82;94770.28;10336659;28;19992;-80
2024/03/22 13:04:06;;;;;;;;;;;;;;;13.84;35.29;94760.78;10328839;28;19968;-79
2024/03/22 13:09:09;;;;;;;;;;;;;;;14.18;35.35;94768.63;10324376;28;19920;-80
2024/03/22 13:14:09;;;;;;;;;;;;;;;14.51;33.71;94757.81;10306895;28;19913;-83
2024/03/22 13:19:12;;;;;;;;;;;;;;;14.63;33.46;94765.47;10305356;28;20381;-80
2024/03/22 13:24:13;;;;;;;;;;;;;;;14.77;33.79;94760.09;10304664;28;20000;-79
2024/03/22 13:29:13;;;;;;;;;;;;;;;14.77;33.27;94751.97;10305092;28;20350;-80
2024/03/22 13:34:14;;;;;;;;;;;;;;;14.82;35.07;94745.69;10307875;28;19917;-79
2024/03/22 13:39:15;;;;;;;;;;;;;;;14.74;34.74;94747.16;10309382;28;19957;-79
2024/03/22 13:44:15;;;;;;;;;;;;;;;14.78;33.86;94736.56;10312125;28;19914;-80
2024/03/22 13:49:16;;;;;;;;;;;;;;;14.76;34.22;94734.13;10311768;28;20280;-79
2024/03/22 13:54:17;;;;;;;;;;;;;;;14.52;34.80;94724.25;10314913;28;20000;-81
2024/03/22 13:59:17;;;;;;;;;;;;;;;14.75;34.87;94723.59;10336552;28;19910;-80
2024/03/22 14:04:19;;;;;;;;;;;;;;;14.62;34.44;94717.06;10323701;28;20000;-80
2024/03/22 14:09:19;;;;;;;;;;;;;;;14.51;35.17;94708.31;10323991;28;19917;-79
2024/03/22 14:14:19;;;;;;;;;;;;;;;14.53;34.74;94715.03;10327189;28;19909;-78
2024/03/22 14:19:20;;;;;;;;;;;;;;;14.40;34.55;94707.72;10311525;28;19914;-79
2024/03/22 14:24:20;;;;;;;;;;;;;;;14.35;34.67;94705.09;10308938;28;19917;-79
2024/03/22 14:29:20;;;;;;;;;;;;;;;14.32;34.57;94701.09;10311203;28;20388;-81
2024/03/22 14:34:21;;;;;;;;;;;;;;;14.27;34.94;94689.56;10309194;28;20297;-78
2024/03/22 14:39:21;;;;;;;;;;;;;;;14.28;35.94;94699.28;10312133;28;20560;-78
2024/03/22 14:44:22;;;;;;;;;;;;;;;13.78;35.87;94694.44;10306639;28;19918;-78
2024/03/22 14:49:23;;;;;;;;;;;;;;;13.56;36.36;94692.31;10319705;28;19913;-78
2024/03/22 14:54:23;;;;;;;;;;;;;;;13.50;36.06;94692.41;10290692;28;19965;-79
2024/03/22 14:59:27;;;;;;;;;;;;;;;13.59;35.66;94691.72;10305999;28;20016;-79
2024/03/22 15:04:28;;;;;;;;;;;;;;;13.72;36.13;94690.22;10307683;28;20435;-80
2024/03/22 15:09:28;;;;;;;;;;;;;;;13.61;35.70;94690.34;10308907;28;19917;-79
2024/03/22 15:14:28;;;;;;;;;;;;;;;13.57;35.78;94688.53;10318787;28;19932;-80
2024/03/22 15:19:29;;;;;;;;;;;;;;;13.62;35.35;94689.25;10307649;28;19917;-79
2024/03/22 15:24:29;;;;;;;;;;;;;;;13.49;35.40;94690.81;10309102;28;19913;-82
2024/03/22 15:29:30;;;;;;;;;;;;;;;13.52;35.90;94685.91;10308857;28;20432;-81
2024/03/22 15:34:30;;;;;;;;;;;;;;;13.54;36.41;94683.72;10311163;28;20420;-78
2024/03/22 15:39:31;;;;;;;;;;;;;;;13.43;36.81;94697.38;10310969;28;19924;-81
2024/03/22 15:44:32;;;;;;;;;;;;;;;13.11;37.32;94698.03;10309265;28;20564;-80
2024/03/22 15:49:32;;;;;;;;;;;;;;;12.97;37.91;94703.34;10293518;28;19917;-80
2024/03/22 15:54:33;;;;;;;;;;;;;;;12.72;38.17;94694.47;10309622;28;19964;-79
2024/03/22 15:59:33;;;;;;;;;;;;;;;12.68;38.53;94703.41;10292576;28;19914;-80
2024/03/22 16:04:33;;;;;;;;;;;;;;;12.50;38.90;94710.34;10309565;28;19917;-80
2024/03/22 16:09:37;;;;;;;;;;;;;;;12.39;39.49;94723.13;10312928;28;20282;-80
2024/03/22 16:14:38;;;;;;;;;;;;;;;12.28;39.92;94712.44;10295438;28;20211;-79
2024/03/22 16:19:39;;;;;;;;;;;;;;;12.16;40.06;94714.72;10297889;28;20387;-80
2024/03/22 16:24:39;;;;;;;;;;;;;;;12.14;40.35;94709.63;10291086;28;19937;-79
2024/03/22 16:29:39;;;;;;;;;;;;;;;11.96;40.92;94723.78;10305291;28;19946;-80
2024/03/22 16:34:40;;;;;;;;;;;;;;;11.83;41.18;94727.09;10299797;28;19921;-79
2024/03/22 16:39:40;;;;;;;;;;;;;;;11.94;41.69;94729.47;10298331;28;19918;-80
2024/03/22 16:44:40;;;;;;;;;;;;;;;11.90;41.79;94738.34;10305834;28;19921;-80
2024/03/22 16:49:41;;;;;;;;;;;;;;;11.80;42.13;94737.34;10308865;28;19921;-82
2024/03/22 16:54:41;;;;;;;;;;;;;;;11.45;42.41;94744.53;10309642;28;19916;-82
2024/03/22 16:59:41;;;;;;;;;;;;;;;11.51;42.54;94752.59;10309313;28;20230;-82
2024/03/22 17:04:41;;;;;;;;;;;;;;;11.36;42.67;94757.00;10289811;28;19910;-80
2024/03/22 17:09:42;;;;;;;;;;;;;;;11.15;43.62;94766.22;10307123;28;19921;-80
2024/03/22 17:14:47;;;;;;;;;;;;;;;11.13;44.04;94771.09;10307571;28;19910;-82
2024/03/22 17:19:48;;;;;;;;;;;;;;;11.20;44.02;94775.06;10305401;28;20000;-82
2024/03/22 17:24:48;;;;;;;;;;;;;;;10.99;45.04;94785.13;10304904;28;19924;-80
2024/03/22 17:29:48;;;;;;;;;;;;;;;10.83;45.54;94787.06;10303931;28;19926;-80
2024/03/22 17:34:48;;;;;;;;;;;;;;;10.81;45.76;94809.91;10306470;28;20389;-80
2024/03/22 17:39:49;;;;;;;;;;;;;;;10.73;46.88;94813.94;10305573;28;19945;-80
2024/03/22 17:44:49;;;;;;;;;;;;;;;10.54;47.83;94819.09;10304651;28;19913;-82
2024/03/22 17:49:50;;;;;;;;;;;;;;;10.45;48.20;94812.66;10320126;28;19913;-79
2024/03/22 17:54:50;;;;;;;;;;;;;;;10.36;48.78;94817.75;10305511;28;19914;-80
2024/03/22 17:59:50;;;;;;;;;;;;;;;10.22;48.46;94826.31;10285198;28;19953;-80
2024/03/22 18:04:50;;;;;;;;;;;;;;;10.16;48.83;94823.91;10306623;28;19980;-80
2024/03/22 18:09:51;;;;;;;;;;;;;;;10.10;49.11;94823.09;10283892;28;20381;-83
2024/03/22 18:14:54;;;;;;;;;;;;;;;10.14;49.96;94828.75;10301382;28;20233;-81
2024/03/22 18:19:54;;;;;;;;;;;;;;;10.13;51.07;94825.25;10287552;28;20328;-81
2024/03/22 18:24:54;;;;;;;;;;;;;;;9.91;50.69;94828.19;10304086;28;19921;-82
2024/03/22 18:29:55;;;;;;;;;;;;;;;9.87;50.51;94830.59;10310621;28;20000;-81
2024/03/22 18:34:55;;;;;;;;;;;;;;;9.92;53.03;94822.56;10311696;28;20009;-86
2024/03/22 18:39:55;;;;;;;;;;;;;;;9.70;51.09;94830.81;10324444;28;20273;-77
2024/03/22 18:44:55;;;;;;;;;;;;;;;9.62;51.80;94833.22;10324431;28;19972;-79
2024/03/22 18:49:55;;;;;;;;;;;;;;;9.65;52.88;94814.72;10307422;28;20300;-78
2024/03/22 18:55:00;;;;;;;;;;;;;;;9.61;52.58;94828.94;10306944;28;20373;-81
2024/03/22 19:00:00;;;;;;;;;;;;;;;9.67;54.54;94827.84;10294107;28;19910;-80
2024/03/22 19:05:00;;;;;;;;;;;;;;;9.56;54.18;94837.78;10308580;28;19914;-80
2024/03/22 19:10:00;;;;;;;;;;;;;;;9.34;54.86;94828.03;10280294;28;20358;-82
2024/03/22 19:15:01;;;;;;;;;;;;;;;9.32;56.25;94821.31;10320377;28;19918;-80
2024/03/22 19:20:01;;;;;;;;;;;;;;;9.29;58.25;94821.84;10311663;28;20303;-82
2024/03/22 19:25:01;;;;;;;;;;;;;;;9.12;59.33;94827.41;10309356;28;20357;-79
2024/03/22 19:30:02;;;;;;;;;;;;;;;8.77;59.65;94829.63;10291779;28;19917;-82
2024/03/22 19:35:02;;;;;;;;;;;;;;;8.75;60.54;94826.44;10291495;28;20443;-83
2024/03/22 19:40:03;;;;;;;;;;;;;;;8.69;62.16;94830.94;10310309;28;20256;-81
2024/03/22 19:45:04;;;;;;;;;;;;;;;8.51;61.60;94837.53;10305429;28;20349;-79
2024/03/22 19:50:05;;;;;;;;;;;;;;;8.49;63.49;94825.44;10303005;28;19913;-76
2024/03/22 19:55:05;;;;;;;;;;;;;;;8.25;64.70;94825.78;10302209;28;20522;-75
2024/03/22 20:00:07;;;;;;;;;;;;;;;8.13;64.59;94825.94;10300625;28;20400;-76
2024/03/22 20:05:07;;;;;;;;;;;;;;;8.17;63.69;94831.59;10301740;28;19913;-74
2024/03/22 20:10:08;;;;;;;;;;;;;;;7.99;64.61;94836.25;10301059;28;19922;-74
2024/03/22 20:15:08;;;;;;;;;;;;;;;7.82;65.89;94835.59;10286499;28;19909;-75
2024/03/22 20:20:09;;;;;;;;;;;;;;;7.72;67.20;94835.47;10298300;28;20332;-75
2024/03/22 20:25:09;;;;;;;;;;;;;;;7.61;67.76;94839.94;10298584;28;19960;-76
2024/03/22 20:30:10;;;;;;;;;;;;;;;7.47;68.92;94836.84;10298596;28;20021;-76
2024/03/22 20:35:10;;;;;;;;;;;;;;;7.40;69.13;94842.38;10297057;28;19914;-77
2024/03/22 20:40:10;;;;;;;;;;;;;;;7.26;70.09;94841.94;10258191;28;19976;-77
2024/03/22 20:45:11;;;;;;;;;;;;;;;7.01;72.39;94851.25;10257625;28;20260;-77
2024/03/22 20:50:11;;;;;;;;;;;;;;;6.95;73.18;94848.75;10254886;28;19918;-80
2024/03/22 20:55:11;;;;;;;;;;;;;;;6.94;73.42;94845.28;10260269;28;19918;-82
2024/03/22 21:00:12;;;;;;;;;;;;;;;6.73;75.56;94856.75;10261097;28;19914;-83
2024/03/22 21:05:16;;;;;;;;;;;;;;;6.61;77.36;94851.50;10260042;28;19910;-82
2024/03/22 21:10:16;;;;;;;;;;;;;;;6.67;77.03;94850.53;10255498;28;19914;-81
2024/03/22 21:15:16;;;;;;;;;;;;;;;6.63;77.80;94852.09;10250826;28;19910;-82
2024/03/22 21:20:16;;;;;;;;;;;;;;;6.64;78.04;94851.00;10237540;28;19918;-80
2024/03/22 21:25:17;;;;;;;;;;;;;;;6.71;77.95;94850.84;10257325;28;20310;-85
2024/03/22 21:30:17;;;;;;;;;;;;;;;6.50;78.68;94854.03;10242941;28;20623;-78
2024/03/22 21:35:18;;;;;;;;;;;;;;;6.60;79.63;94850.72;10262035;28;19917;-84
2024/03/22 21:40:19;;;;;;;;;;;;;;;6.56;80.44;94856.75;10282155;28;20056;-85
2024/03/22 21:45:20;;;;;;;;;;;;;;;6.45;81.37;94850.47;10291962;28;19913;-87
2024/03/22 21:50:20;;;;;;;;;;;;;;;6.46;80.88;94849.41;10264465;28;20226;-82
2024/03/22 21:55:21;;;;;;;;;;;;;;;6.51;80.46;94857.50;10257449;28;19910;-82
2024/03/22 22:00:21;;;;;;;;;;;;;;;6.52;81.21;94856.47;10300495;28;19914;-83
2024/03/22 22:05:21;;;;;;;;;;;;;;;6.40;83.58;94858.41;10288840;28;19910;-85
2024/03/22 22:10:21;;;;;;;;;;;;;;;6.54;83.75;94859.69;10259935;28;19913;-82
2024/03/22 22:15:27;;;;;;;;;;;;;;;6.49;81.93;94852.41;10304786;28;20274;-88
2024/03/22 22:20:28;;;;;;;;;;;;;;;6.38;83.38;94845.31;10305838;28;19943;-84
2024/03/22 22:25:28;;;;;;;;;;;;;;;6.28;85.50;94847.81;10329287;28;19914;-84
2024/03/22 22:30:28;;;;;;;;;;;;;;;6.07;88.32;94849.34;10280574;28;19917;-83
2024/03/22 22:35:28;;;;;;;;;;;;;;;5.92;90.86;94850.69;10292549;28;19910;-83
2024/03/22 22:40:29;;;;;;;;;;;;;;;5.93;91.86;94857.63;10290368;28;20353;-85
2024/03/22 22:45:29;;;;;;;;;;;;;;;5.91;92.98;94858.91;10267010;28;19932;-83
2024/03/22 22:50:30;;;;;;;;;;;;;;;5.72;95.82;94863.66;10312352;28;19909;-83
2024/03/22 22:55:30;;;;;;;;;;;;;;;5.62;98.20;94867.75;10291200;28;19924;-77
2024/03/22 23:00:30;;;;;;;;;;;;;;;5.73;95.61;94868.72;10297794;28;20271;-77
2024/03/22 23:05:30;;;;;;;;;;;;;;;5.62;93.91;94857.09;10302493;28;20008;-84
2024/03/22 23:10:31;;;;;;;;;;;;;;;5.62;93.38;94857.09;10281887;28;19913;-86
2024/03/22 23:15:31;;;;;;;;;;;;;;;5.48;95.32;94850.41;10261094;28;19932;-85
2024/03/22 23:20:33;;;;;;;;;;;;;;;5.35;96.95;94848.84;10301927;28;19920;-80
2024/03/22 23:25:34;;;;;;;;;;;;;;;5.29;98.50;94845.28;10295285;28;20425;-81
2024/03/22 23:30:34;;;;;;;;;;;;;;;5.25;98.27;94840.66;10302218;28;19913;-87
2024/03/22 23:35:34;;;;;;;;;;;;;;;5.23;97.83;94832.91;10297507;28;20777;-81
2024/03/22 23:40:35;;;;;;;;;;;;;;;5.14;98.64;94829.78;10294767;28;19932;-78
2024/03/22 23:45:35;;;;;;;;;;;;;;;5.02;99.54;94826.34;10299421;28;20632;-77
2024/03/22 23:50:35;;;;;;;;;;;;;;;4.82;100.00;94832.06;10297106;28;20006;-77
2024/03/22 23:55:36;;;;;;;;;;;;;;;4.73;100.00;94844.13;10296078;28;19964;-76
